createdAt,value
2022-08-11T00:01:07.792Z,2.13
2022-08-11T00:06:06.143Z,2.10
2022-08-11T00:11:08.009Z,2.00
2022-08-11T00:16:15.291Z,1.90
2022-08-11T00:21:14.361Z,1.70
2022-08-11T00:26:13.688Z,1.90
2022-08-11T00:31:25.263Z,1.87
2022-08-11T00:36:29.627Z,2.30
2022-08-11T00:41:35.351Z,2.00
2022-08-11T00:46:47.178Z,1.70
2022-08-11T00:52:05.661Z,2.10
2022-08-11T00:57:43.199Z,2.93
2022-08-11T01:03:08.125Z,2.20
2022-08-11T01:08:57.806Z,2.20
2022-08-11T01:14:34.152Z,1.67
2022-08-11T01:20:45.645Z,2.30
2022-08-11T01:26:02.294Z,1.90
2022-08-11T01:31:57.842Z,2.17
2022-08-11T01:37:28.346Z,2.27
2022-08-11T01:43:19.897Z,2.27
2022-08-11T01:48:26.201Z,1.90
2022-08-11T01:53:35.742Z,1.90
2022-08-11T01:58:44.474Z,1.80
2022-08-11T02:03:51.206Z,1.90
2022-08-11T02:08:56.797Z,1.90
2022-08-11T02:14:03.976Z,2.80
2022-08-11T02:19:29.768Z,2.60
2022-08-11T02:24:32.263Z,1.90
2022-08-11T02:29:42.391Z,2.37
2022-08-11T02:35:00.115Z,2.33
2022-08-11T02:40:15.707Z,2.40
2022-08-11T02:45:47.315Z,2.73
2022-08-11T02:51:00.721Z,2.53
2022-08-11T02:56:08.717Z,2.83
2022-08-11T03:01:16.629Z,2.40
2022-08-11T03:06:27.972Z,2.70
2022-08-11T03:12:04.098Z,2.60
2022-08-11T03:17:11.291Z,2.60
2022-08-11T03:22:14.503Z,3.10
2022-08-11T03:27:25.163Z,2.50
2022-08-11T03:32:30.582Z,2.67
2022-08-11T03:37:52.329Z,3.03
2022-08-11T03:42:59.367Z,2.73
2022-08-11T03:48:09.841Z,2.77
2022-08-11T03:53:17.789Z,3.30
2022-08-11T03:59:06.451Z,2.80
2022-08-11T04:04:51.437Z,2.63
2022-08-11T04:10:23.149Z,2.90
2022-08-11T04:16:12.219Z,2.70
2022-08-11T04:21:38.759Z,2.87
2022-08-11T04:27:08.810Z,3.43
2022-08-11T04:32:32.586Z,3.10
2022-08-11T04:37:58.254Z,3.40
2022-08-11T04:44:02.728Z,2.70
2022-08-11T04:49:36.882Z,3.43
2022-08-11T04:55:18.728Z,4.07
2022-08-11T05:00:37.353Z,3.93
2022-08-11T05:05:56.454Z,3.33
2022-08-11T05:11:12.939Z,3.57
2022-08-11T05:16:36.354Z,3.43
2022-08-11T05:21:53.865Z,4.10
2022-08-11T05:27:15.653Z,4.00
2022-08-11T05:32:36.037Z,4.03
2022-08-11T05:37:41.740Z,4.20
2022-08-11T05:43:02.971Z,4.43
2022-08-11T05:48:18.962Z,3.80
2022-08-11T05:53:45.810Z,4.33
2022-08-11T05:58:50.927Z,4.67
2022-08-11T06:04:09.366Z,4.77
2022-08-11T06:09:08.894Z,5.37
2022-08-11T06:14:10.663Z,4.40
2022-08-11T06:19:10.397Z,5.20
2022-08-11T06:24:14.292Z,5.50
2022-08-11T06:29:18.582Z,5.40
2022-08-11T06:34:30.153Z,5.03
2022-08-11T06:39:34.977Z,4.50
2022-08-11T06:44:41.903Z,5.03
2022-08-11T06:50:03.076Z,5.33
2022-08-11T06:55:06.703Z,4.83
2022-08-11T07:00:25.329Z,4.60
2022-08-11T07:05:29.987Z,4.50
2022-08-11T07:11:05.254Z,4.83
2022-08-11T07:16:12.485Z,3.63
2022-08-11T07:22:01.887Z,4.10
2022-08-11T07:27:13.718Z,3.70
2022-08-11T07:32:23.297Z,3.73
2022-08-11T07:37:24.008Z,4.27
2022-08-11T07:42:27.782Z,4.47
2022-08-11T07:47:46.109Z,3.87
2022-08-11T07:52:44.696Z,3.87
2022-08-11T07:58:19.194Z,3.70
2022-08-11T08:03:37.327Z,3.70
2022-08-11T08:08:54.982Z,3.40
2022-08-11T08:14:12.168Z,2.90
2022-08-11T08:19:13.878Z,3.53
2022-08-11T08:24:12.807Z,4.60
2022-08-11T08:29:28.869Z,3.17
2022-08-11T08:34:29.230Z,2.90
2022-08-11T08:39:33.649Z,3.27
2022-08-11T08:44:40.640Z,2.90
2022-08-11T08:49:49.369Z,2.73
2022-08-11T08:54:50.615Z,2.80
2022-08-11T08:59:51.515Z,3.10
2022-08-11T09:04:51.486Z,2.97
2022-08-11T09:09:51.137Z,2.60
2022-08-11T09:15:04.360Z,2.70
2022-08-11T09:20:07.231Z,3.50
2022-08-11T09:25:19.806Z,2.87
2022-08-11T09:30:17.859Z,2.90
2022-08-11T09:35:18.063Z,2.90
2022-08-11T09:40:33.500Z,2.50
2022-08-11T09:45:40.307Z,2.83
2022-08-11T09:50:41.051Z,2.50
2022-08-11T09:55:39.970Z,2.40
2022-08-11T10:00:40.237Z,2.47
2022-08-11T10:05:58.606Z,2.60
2022-08-11T10:10:57.715Z,2.77
2022-08-11T10:16:14.808Z,2.30
2022-08-11T10:21:28.214Z,2.83
2022-08-11T10:26:46.891Z,2.10
2022-08-11T10:32:04.636Z,2.30
2022-08-11T10:37:14.977Z,2.00
2022-08-11T10:42:55.342Z,2.20
2022-08-11T10:47:50.064Z,2.30
2022-08-11T10:53:08.924Z,2.20
2022-08-11T10:58:24.733Z,2.53
2022-08-11T11:03:23.996Z,2.10
2022-08-11T11:08:49.546Z,2.30
2022-08-11T11:14:10.709Z,2.00
2022-08-11T11:19:11.232Z,2.10
2022-08-11T11:24:22.768Z,2.33
2022-08-11T11:29:47.246Z,2.20
2022-08-11T11:35:09.016Z,2.17
2022-08-11T11:40:12.741Z,2.27
2022-08-11T11:45:22.828Z,2.37
2022-08-11T11:50:31.458Z,2.30
2022-08-11T11:55:33.830Z,2.60
2022-08-11T12:00:50.119Z,2.30
2022-08-11T12:05:48.763Z,2.37
2022-08-11T12:11:15.045Z,2.70
2022-08-11T12:16:35.015Z,2.60
2022-08-11T12:21:33.363Z,2.50
2022-08-11T12:27:14.938Z,2.27
2022-08-11T12:32:12.153Z,2.60
2022-08-11T12:37:13.673Z,2.63
2022-08-11T12:42:34.585Z,2.70
2022-08-11T12:48:12.272Z,2.33
2022-08-11T12:53:13.762Z,2.47
2022-08-11T12:58:17.430Z,2.40
2022-08-11T13:03:34.051Z,2.30
2022-08-11T13:08:36.446Z,2.70
2022-08-11T13:13:54.949Z,2.03
2022-08-11T13:18:54.754Z,2.73
2022-08-11T13:24:00.485Z,2.27
2022-08-11T13:29:02.127Z,2.23
2022-08-11T13:39:04.372Z,2.10
2022-08-11T13:44:04.339Z,2.00
2022-08-11T13:49:03.059Z,2.00
2022-08-11T13:54:04.235Z,2.37
2022-08-11T13:59:05.207Z,1.90
2022-08-11T14:04:30.646Z,2.40
2022-08-11T14:09:31.158Z,2.50
2022-08-11T14:14:35.478Z,1.67
2022-08-11T14:19:36.567Z,2.30
2022-08-11T14:24:36.239Z,1.43
2022-08-11T14:29:46.308Z,2.00
2022-08-11T14:34:47.293Z,1.83
2022-08-11T14:39:48.024Z,1.93
2022-08-11T14:45:07.461Z,1.80
2022-08-11T14:50:11.587Z,1.53
2022-08-11T14:55:29.507Z,1.80
2022-08-11T15:00:29.127Z,1.83
2022-08-11T15:05:28.070Z,1.70
2022-08-11T15:10:26.659Z,1.73
2022-08-11T15:15:44.017Z,1.50
2022-08-11T15:21:01.414Z,1.90
2022-08-11T15:26:01.595Z,1.43
2022-08-11T15:31:19.326Z,1.37
2022-08-11T15:36:36.590Z,1.83
2022-08-11T15:41:58.978Z,1.53
2022-08-11T15:47:01.842Z,1.37
2022-08-11T15:52:04.752Z,1.50
2022-08-11T15:57:05.512Z,1.53
2022-08-11T16:02:23.640Z,1.50
2022-08-11T16:07:27.709Z,1.37
2022-08-11T16:12:30.268Z,1.20
2022-08-11T16:17:31.801Z,2.43
2022-08-11T16:22:39.361Z,1.20
2022-08-11T16:27:43.570Z,4.30
2022-08-11T16:32:44.532Z,2.70
2022-08-11T16:38:03.158Z,1.13
2022-08-11T16:43:19.618Z,1.57
2022-08-11T16:48:35.868Z,1.47
2022-08-11T16:53:48.827Z,1.80
2022-08-11T16:59:17.718Z,1.23
2022-08-11T17:04:39.553Z,1.30
2022-08-11T17:09:57.145Z,1.70
2022-08-11T17:14:59.032Z,1.50
2022-08-11T17:20:38.666Z,1.60
2022-08-11T17:25:21.216Z,1.50
2022-08-11T17:30:19.516Z,1.13
2022-08-11T17:35:31.996Z,1.10
2022-08-11T17:40:33.594Z,1.40
2022-08-11T17:45:55.659Z,1.77
2022-08-11T17:50:56.397Z,1.30
2022-08-11T17:56:14.052Z,1.67
2022-08-11T18:01:13.682Z,1.67
2022-08-11T18:06:13.731Z,1.50
2022-08-11T18:12:06.768Z,2.10
2022-08-11T18:17:08.183Z,1.60
2022-08-11T18:22:27.388Z,1.67
2022-08-11T18:27:48.775Z,1.70
2022-08-11T18:33:45.201Z,1.93
2022-08-11T18:38:46.935Z,1.60
2022-08-11T18:44:06.438Z,1.67
2022-08-11T18:49:33.131Z,1.50
2022-08-11T18:55:06.987Z,1.87
2022-08-11T19:00:29.043Z,1.70
2022-08-11T19:06:08.397Z,1.50
2022-08-11T19:11:22.452Z,1.60
2022-08-11T19:16:43.069Z,1.60
2022-08-11T19:22:00.223Z,1.73
2022-08-11T19:27:17.151Z,1.70
2022-08-11T19:32:35.067Z,2.10
2022-08-11T19:37:51.706Z,2.20
2022-08-11T19:43:14.880Z,2.30
2022-08-11T19:48:42.914Z,1.63
2022-08-11T19:53:59.153Z,1.80
2022-08-11T19:59:16.419Z,2.20
2022-08-11T20:04:33.399Z,2.07
2022-08-11T20:10:06.036Z,2.00
2022-08-11T20:15:24.003Z,2.20
2022-08-11T20:20:43.718Z,2.50
2022-08-11T20:26:14.209Z,2.43
2022-08-11T20:31:36.622Z,2.27
2022-08-11T20:36:55.942Z,2.40
2022-08-11T20:42:13.132Z,2.63
2022-08-11T20:47:30.437Z,2.47
2022-08-11T20:52:50.292Z,2.33
2022-08-11T20:58:07.051Z,2.93
2022-08-11T21:03:36.347Z,3.00
2022-08-11T21:09:02.610Z,2.87
2022-08-11T21:14:22.470Z,2.60
2022-08-11T21:20:00.491Z,2.50
2022-08-11T21:25:23.533Z,2.30
2022-08-11T21:30:39.291Z,2.73
2022-08-11T21:35:55.423Z,2.17
2022-08-11T21:41:13.052Z,2.10
2022-08-11T21:46:29.461Z,2.00
2022-08-11T21:51:49.419Z,2.37
2022-08-11T21:57:07.284Z,1.93
2022-08-11T22:02:23.197Z,2.27
2022-08-11T22:07:41.091Z,2.30
2022-08-11T22:12:58.000Z,2.07
2022-08-11T22:18:13.337Z,2.27
2022-08-11T22:23:35.242Z,2.37
2022-08-11T22:28:53.103Z,2.20
2022-08-11T22:34:08.355Z,2.23
2022-08-11T22:39:26.136Z,2.20
2022-08-11T22:44:43.232Z,2.30
2022-08-11T22:50:00.419Z,2.33
2022-08-11T22:55:17.063Z,2.50
2022-08-11T23:00:35.458Z,2.40
2022-08-11T23:05:52.532Z,2.63
2022-08-11T23:11:09.294Z,2.33
2022-08-11T23:16:26.840Z,2.33
2022-08-11T23:21:43.081Z,2.70
2022-08-11T23:27:00.069Z,2.20
2022-08-11T23:32:17.087Z,2.40
2022-08-11T23:37:32.426Z,2.57
2022-08-11T23:42:47.768Z,2.20
2022-08-11T23:48:05.535Z,2.70
2022-08-11T23:53:22.382Z,2.97
2022-08-11T23:58:37.888Z,2.20
